createdAt,value
2022-12-24T07:01:42.555Z,89.07
2022-12-24T07:04:16.202Z,89.07
2022-12-24T07:06:47.573Z,89.16
2022-12-24T07:09:15.455Z,89.16
2022-12-24T07:11:43.290Z,89.11
2022-12-24T07:14:11.165Z,89.10
2022-12-24T07:16:39.163Z,89.11
2022-12-24T07:19:07.299Z,89.16
2022-12-24T07:21:35.172Z,89.22
2022-12-24T07:24:03.138Z,89.27
2022-12-24T07:26:30.998Z,89.33
2022-12-24T07:28:58.869Z,89.38
2022-12-24T07:31:26.790Z,89.42
2022-12-24T07:33:54.800Z,89.45
2022-12-24T07:36:23.843Z,89.52
2022-12-24T07:38:52.712Z,89.50
2022-12-24T07:41:21.116Z,89.51
2022-12-24T07:43:48.884Z,89.49
2022-12-24T07:46:16.827Z,89.52
2022-12-24T07:48:44.637Z,89.49
2022-12-24T07:51:12.523Z,89.42
2022-12-24T07:53:47.461Z,89.40
2022-12-24T07:56:16.459Z,89.41
2022-12-24T07:58:44.421Z,89.36
2022-12-24T08:01:12.511Z,89.36
2022-12-24T08:03:40.565Z,89.41
2022-12-24T08:06:09.244Z,89.44
2022-12-24T08:08:37.727Z,89.47
2022-12-24T08:11:07.219Z,89.46
2022-12-24T08:13:35.883Z,89.39
2022-12-24T08:16:03.867Z,89.38
2022-12-24T08:18:31.739Z,89.40
2022-12-24T08:20:59.846Z,89.40
2022-12-24T08:23:27.718Z,89.36
2022-12-24T08:25:55.548Z,89.32
2022-12-24T08:28:23.518Z,89.32
2022-12-24T08:30:52.095Z,89.29
2022-12-24T08:33:22.327Z,89.24
2022-12-24T08:35:55.107Z,89.25
2022-12-24T08:38:23.465Z,89.24
2022-12-24T08:40:54.518Z,89.24
2022-12-24T08:43:22.902Z,89.25
2022-12-24T08:45:50.767Z,89.30
2022-12-24T08:48:18.728Z,89.38
2022-12-24T08:50:47.408Z,89.38
2022-12-24T08:53:15.290Z,89.32
2022-12-24T08:55:43.134Z,89.32
2022-12-24T08:58:11.117Z,89.28
2022-12-24T09:00:39.154Z,89.35
2022-12-24T09:03:07.186Z,89.41
2022-12-24T09:05:39.835Z,89.40
2022-12-24T09:08:07.822Z,89.42
2022-12-24T09:10:35.795Z,89.40
2022-12-24T09:13:03.752Z,89.38
2022-12-24T09:15:32.037Z,89.31
2022-12-24T09:18:01.565Z,89.28
2022-12-24T09:20:29.887Z,89.25
2022-12-24T09:22:57.810Z,89.13
2022-12-24T09:25:25.945Z,89.03
2022-12-24T09:27:54.000Z,88.97
2022-12-24T09:30:22.341Z,88.93
2022-12-24T09:32:52.482Z,88.86
2022-12-24T09:35:20.625Z,88.83
2022-12-24T09:37:48.740Z,88.73
2022-12-24T09:40:26.028Z,88.72
2022-12-24T09:42:54.683Z,88.69
2022-12-24T09:45:37.103Z,88.73
2022-12-24T09:48:11.019Z,88.75
2022-12-24T09:50:50.254Z,88.70
2022-12-24T09:53:44.143Z,88.63
2022-12-24T09:56:17.743Z,88.58
2022-12-24T09:58:49.599Z,88.53
2022-12-24T10:01:20.056Z,88.45
2022-12-24T10:03:48.470Z,88.43
2022-12-24T10:06:28.813Z,88.36
2022-12-24T10:09:13.224Z,88.35
2022-12-24T10:12:00.429Z,88.17
2022-12-24T10:14:59.619Z,88.04
2022-12-24T10:17:42.571Z,88.14
2022-12-24T10:20:31.911Z,88.18
2022-12-24T10:23:02.738Z,88.18
2022-12-24T10:25:45.496Z,88.05
2022-12-24T10:28:19.814Z,88.08
2022-12-24T10:30:58.943Z,88.14
2022-12-24T10:33:38.442Z,88.11
2022-12-24T10:36:12.493Z,87.89
2022-12-24T10:38:40.531Z,87.69
2022-12-24T10:41:08.947Z,87.67
2022-12-24T10:43:40.357Z,87.73
2022-12-24T10:46:17.867Z,87.85
2022-12-24T10:49:06.907Z,87.93
2022-12-24T10:51:41.809Z,87.94
2022-12-24T10:54:20.916Z,87.78
2022-12-24T10:56:59.916Z,87.69
2022-12-24T10:59:27.755Z,87.71
2022-12-24T11:02:00.856Z,87.68
2022-12-24T11:04:31.582Z,87.75
2022-12-24T11:07:05.540Z,87.87
2022-12-24T11:09:41.582Z,87.98
2022-12-24T11:12:31.935Z,87.89
2022-12-24T11:15:26.456Z,87.85
2022-12-24T11:17:57.153Z,87.87
2022-12-24T11:20:28.510Z,87.96
2022-12-24T11:22:57.758Z,87.99
2022-12-24T11:25:34.788Z,87.88
2022-12-24T11:28:37.462Z,88.00
2022-12-24T11:31:29.456Z,87.96
2022-12-24T11:33:57.713Z,87.86
2022-12-24T11:36:27.793Z,87.80
2022-12-24T11:38:58.138Z,87.89
2022-12-24T11:41:26.846Z,88.01
2022-12-24T11:44:03.840Z,88.18
2022-12-24T11:46:34.468Z,88.23
2022-12-24T11:49:14.559Z,88.35
2022-12-24T11:52:10.229Z,88.33
2022-12-24T11:54:52.092Z,88.37
2022-12-24T11:57:25.265Z,88.38
2022-12-24T11:59:53.135Z,88.43
2022-12-24T12:02:23.654Z,88.31
2022-12-24T12:04:57.405Z,88.17
2022-12-24T12:07:29.572Z,87.98
2022-12-24T12:09:57.604Z,88.05
2022-12-24T12:12:29.343Z,87.95
2022-12-24T12:15:14.337Z,87.98
2022-12-24T12:18:13.715Z,88.04
2022-12-24T12:20:49.072Z,88.08
2022-12-24T12:23:29.412Z,88.07
2022-12-24T12:26:18.374Z,88.10
2022-12-24T12:28:54.850Z,88.01
2022-12-24T12:31:47.563Z,87.88
2022-12-24T12:34:22.109Z,87.91
2022-12-24T12:36:58.168Z,87.85
2022-12-24T12:39:26.700Z,87.89
2022-12-24T12:42:12.802Z,87.80
2022-12-24T12:44:54.949Z,87.88
2022-12-24T12:47:31.614Z,87.98
2022-12-24T12:50:11.465Z,88.03
2022-12-24T12:52:54.481Z,88.03
2022-12-24T12:55:31.563Z,88.13
2022-12-24T12:58:03.604Z,88.18
2022-12-24T13:00:38.521Z,88.04
2022-12-24T13:03:38.594Z,88.01
2022-12-24T13:06:32.350Z,88.07
2022-12-24T13:09:23.159Z,88.07
2022-12-24T13:12:09.835Z,88.12
2022-12-24T13:15:02.728Z,88.10
2022-12-24T13:17:43.377Z,88.17
2022-12-24T13:20:20.261Z,88.14
2022-12-24T13:22:56.550Z,87.98
2022-12-24T13:25:39.235Z,87.91
2022-12-24T13:28:20.723Z,88.00
2022-12-24T13:30:53.847Z,87.99
2022-12-24T13:33:49.329Z,87.68
2022-12-24T13:36:19.746Z,87.85
2022-12-24T13:38:57.983Z,87.85
2022-12-24T13:41:42.101Z,88.02
2022-12-24T13:44:13.641Z,87.98
2022-12-24T13:47:25.304Z,87.96
2022-12-24T13:50:13.187Z,88.19
2022-12-24T13:52:51.893Z,88.26
2022-12-24T13:55:20.070Z,88.29
2022-12-24T13:58:04.214Z,88.28
2022-12-24T14:00:45.166Z,88.32
2022-12-24T14:03:13.319Z,88.38
2022-12-24T14:05:44.661Z,88.42
2022-12-24T14:08:26.717Z,88.29
2022-12-24T14:11:14.574Z,88.30
2022-12-24T14:13:42.351Z,88.34
2022-12-24T14:16:17.700Z,88.37
2022-12-24T14:18:50.732Z,88.41
2022-12-24T14:21:38.485Z,88.45
2022-12-24T14:24:25.504Z,88.46
2022-12-24T14:26:59.005Z,88.55
2022-12-24T14:29:30.799Z,88.59
2022-12-24T14:32:04.415Z,88.68
2022-12-24T14:34:32.501Z,88.73
2022-12-24T14:37:04.466Z,88.78
2022-12-24T14:39:39.056Z,88.79
2022-12-24T14:42:18.513Z,88.70
2022-12-24T14:45:09.437Z,88.68
2022-12-24T14:47:46.307Z,88.73
2022-12-24T14:50:26.356Z,88.72
2022-12-24T14:53:19.075Z,88.77
2022-12-24T14:55:50.162Z,88.79
2022-12-24T14:58:23.236Z,88.87
2022-12-24T15:00:53.818Z,88.85
2022-12-24T15:03:25.645Z,88.87
2022-12-24T15:05:57.922Z,88.87
2022-12-24T15:08:32.617Z,88.88
2022-12-24T15:11:04.580Z,88.92
2022-12-24T15:13:36.847Z,88.68
2022-12-24T15:16:11.437Z,88.78
2022-12-24T15:18:48.448Z,88.88
2022-12-24T15:21:25.991Z,88.97
2022-12-24T15:23:53.909Z,89.00
2022-12-24T15:26:28.759Z,89.08
2022-12-24T15:29:03.074Z,89.08
2022-12-24T15:31:32.221Z,89.04
2022-12-24T15:34:00.773Z,89.17
2022-12-24T15:36:31.555Z,89.14
2022-12-24T15:39:03.159Z,89.06
2022-12-24T15:41:38.834Z,89.06
2022-12-24T15:44:06.703Z,89.12
2022-12-24T15:46:34.738Z,89.18
2022-12-24T15:49:03.338Z,89.08
2022-12-24T15:51:36.970Z,88.99
2022-12-24T15:54:16.015Z,89.02
2022-12-24T15:56:45.685Z,89.06
2022-12-24T15:59:18.035Z,89.03
2022-12-24T16:01:47.985Z,88.96
2022-12-24T16:04:26.115Z,88.92
2022-12-24T16:07:06.994Z,88.99
2022-12-24T16:09:43.309Z,89.03
2022-12-24T16:12:26.283Z,89.04
2022-12-24T16:14:58.662Z,88.95
2022-12-24T16:17:34.258Z,88.93
2022-12-24T16:20:07.137Z,88.98
2022-12-24T16:22:39.787Z,89.01
2022-12-24T16:25:28.761Z,88.97
2022-12-24T16:28:00.345Z,89.08
2022-12-24T16:30:28.740Z,89.07
2022-12-24T16:32:56.607Z,89.01
2022-12-24T16:35:27.949Z,89.00
2022-12-24T16:37:55.819Z,88.98
2022-12-24T16:40:27.727Z,88.99
2022-12-24T16:43:15.927Z,89.05
2022-12-24T16:45:45.228Z,89.12
2022-12-24T16:48:24.859Z,89.18
2022-12-24T16:50:54.179Z,89.26
2022-12-24T16:53:23.458Z,89.24
2022-12-24T16:55:51.975Z,89.21
2022-12-24T16:58:20.719Z,89.19
2022-12-24T17:00:48.572Z,89.25
2022-12-24T17:03:16.495Z,89.29
2022-12-24T17:05:44.850Z,89.27
2022-12-24T17:08:14.039Z,89.24
2022-12-24T17:10:50.655Z,89.20
2022-12-24T17:13:18.600Z,89.17
2022-12-24T17:15:46.634Z,89.18
2022-12-24T17:18:14.554Z,89.17
2022-12-24T17:20:42.798Z,89.16
2022-12-24T17:23:11.056Z,89.11
2022-12-24T17:25:38.929Z,89.12
2022-12-24T17:28:06.887Z,89.17
2022-12-24T17:30:34.775Z,89.20
2022-12-24T17:33:02.591Z,89.20
2022-12-24T17:35:30.492Z,89.21
2022-12-24T17:37:58.351Z,89.24
2022-12-24T17:40:26.134Z,89.16
2022-12-24T17:42:53.939Z,89.13
2022-12-24T17:45:21.843Z,89.09
2022-12-24T17:47:49.707Z,89.09
2022-12-24T17:50:17.829Z,89.07
2022-12-24T17:52:45.596Z,89.07
2022-12-24T17:55:13.372Z,89.04
2022-12-24T17:57:41.279Z,89.07
2022-12-24T18:00:09.909Z,89.07
2022-12-24T18:02:38.677Z,89.08
2022-12-24T18:05:06.877Z,89.06
2022-12-24T18:07:34.786Z,89.03
2022-12-24T18:10:04.798Z,89.00
2022-12-24T18:12:32.634Z,89.01
2022-12-24T18:15:00.531Z,88.96
2022-12-24T18:17:28.403Z,88.95
2022-12-24T18:19:56.197Z,88.96
2022-12-24T18:22:24.133Z,89.01
2022-12-24T18:24:52.009Z,88.97
2022-12-24T18:27:19.804Z,89.04
2022-12-24T18:29:47.585Z,89.05
2022-12-24T18:32:17.126Z,89.05
2022-12-24T18:34:44.923Z,89.09
2022-12-24T18:37:12.693Z,89.09
2022-12-24T18:39:40.736Z,89.08
2022-12-24T18:42:14.357Z,89.06
2022-12-24T18:44:42.465Z,89.05
2022-12-24T18:47:10.430Z,89.01
2022-12-24T18:49:38.430Z,88.98
2022-12-24T18:52:09.470Z,88.91
2022-12-24T18:54:39.911Z,88.95
2022-12-24T18:57:07.976Z,89.00
2022-12-24T18:59:39.180Z,89.00
2022-12-24T19:02:07.099Z,89.02
2022-12-24T19:04:35.004Z,88.98
2022-12-24T19:07:02.878Z,89.00
2022-12-24T19:09:30.635Z,89.01
2022-12-24T19:11:58.412Z,88.97
2022-12-24T19:14:26.217Z,88.99
2022-12-24T19:16:54.173Z,89.01
2022-12-24T19:19:24.215Z,89.03
2022-12-24T19:21:52.074Z,89.03
2022-12-24T19:24:20.536Z,89.04
2022-12-24T19:26:49.010Z,89.04
2022-12-24T19:29:16.903Z,89.05
2022-12-24T19:31:47.641Z,89.06
2022-12-24T19:34:15.819Z,89.10
2022-12-24T19:36:43.671Z,89.14
2022-12-24T19:39:11.672Z,89.14
2022-12-24T19:41:39.604Z,89.12
2022-12-24T19:44:07.474Z,89.11
2022-12-24T19:46:36.972Z,89.08
2022-12-24T19:49:07.309Z,89.03
2022-12-24T19:51:35.990Z,88.97
2022-12-24T19:54:06.200Z,88.94
2022-12-24T19:56:34.147Z,88.87
2022-12-24T19:59:02.982Z,88.81
2022-12-24T20:01:33.327Z,88.79
2022-12-24T20:04:03.190Z,88.74
2022-12-24T20:06:34.478Z,88.80
2022-12-24T20:09:05.414Z,88.83
2022-12-24T20:11:33.946Z,88.84
2022-12-24T20:14:03.963Z,88.76
2022-12-24T20:16:32.104Z,88.76
2022-12-24T20:19:05.026Z,88.77
2022-12-24T20:21:33.101Z,88.79
2022-12-24T20:24:01.055Z,88.82
2022-12-24T20:26:30.007Z,88.79
2022-12-24T20:28:57.831Z,88.77
2022-12-24T20:31:28.731Z,88.77
2022-12-24T20:33:58.615Z,88.79
2022-12-24T20:36:27.732Z,88.76
2022-12-24T20:38:56.097Z,88.72
2022-12-24T20:41:25.844Z,88.69
2022-12-24T20:43:54.378Z,88.67
2022-12-24T20:46:23.249Z,88.69
2022-12-24T20:48:52.052Z,88.65
2022-12-24T20:51:25.365Z,88.63
2022-12-24T20:53:55.429Z,88.68
2022-12-24T20:56:24.636Z,88.70
2022-12-24T20:58:53.128Z,88.75
2022-12-24T21:01:24.879Z,88.77
2022-12-24T21:03:54.749Z,88.79
2022-12-24T21:06:24.519Z,88.79
2022-12-24T21:08:53.910Z,88.77
2022-12-24T21:11:41.229Z,88.79
2022-12-24T21:14:10.156Z,88.79
2022-12-24T21:16:39.419Z,88.81
2022-12-24T21:19:09.049Z,88.85
2022-12-24T21:21:37.011Z,88.85
2022-12-24T21:24:06.307Z,88.90
2022-12-24T21:26:34.252Z,88.87
2022-12-24T21:29:04.542Z,88.90
2022-12-24T21:31:32.704Z,88.90
2022-12-24T21:34:00.671Z,88.89
2022-12-24T21:36:28.647Z,88.88
2022-12-24T21:38:56.927Z,88.92
2022-12-24T21:41:26.109Z,88.94
2022-12-24T21:43:54.714Z,88.94
2022-12-24T21:46:25.442Z,88.95
2022-12-24T21:49:13.984Z,88.97
2022-12-24T21:51:43.442Z,89.00
2022-12-24T21:54:29.690Z,88.98
2022-12-24T21:57:23.519Z,88.99
2022-12-24T21:59:52.816Z,89.01
